Prairie View, Illinois
Current Conditions -  °F | °C
As of 6:52 PM on Tuesday 25 Nov 2014 (Local Time) from KPWK Reporting Station
Clear Clear  
Wind Chill: 21°   Ceiling: Unl
Heat Index: 21°   Visibility: 10mi
Dew Point: 15°   Wind: 3mph
Humidity: 78%   Direction: 240°WSW
Pressure: 30.19"   Gusts: NA
Location:  42.1941°N, 87.9317°W
Report Text: KPWK 260052Z 24003KT 10SM CLR M06/M09 A3019 RMK AO2 SLP232 T10611094
Loading
Personal Weather Stations






























Interactive Weather Map New forecast layout! Learn more

10-Day Weather Forecast

Advertisements
Track Severe Weather on mobile